createdAt,value
2023-10-13T00:02:06.599Z,98809.66
2023-10-13T00:04:36.912Z,98817.09
2023-10-13T00:07:05.595Z,98811.41
2023-10-13T00:09:38.807Z,98809.13
2023-10-13T00:12:11.145Z,98801.34
2023-10-13T00:14:42.071Z,98792.53
2023-10-13T00:17:11.783Z,98799.06
2023-10-13T00:19:46.612Z,98795.22
2023-10-13T00:22:20.505Z,98793.03
2023-10-13T00:24:48.085Z,98792.94
2023-10-13T00:27:30.806Z,98800.25
2023-10-13T00:30:21.392Z,98786.88
2023-10-13T00:32:57.758Z,98792.38
2023-10-13T00:35:26.590Z,98779.94
2023-10-13T00:37:56.444Z,98788.63
2023-10-13T00:40:30.951Z,98787.69
2023-10-13T00:43:17.921Z,98783.38
2023-10-13T00:46:09.102Z,98783.69
2023-10-13T00:48:44.559Z,98785.41
2023-10-13T00:51:24.023Z,98783.59
2023-10-13T00:53:51.780Z,98785.88
2023-10-13T00:56:28.243Z,98778.56
2023-10-13T00:59:00.368Z,98780.06
2023-10-13T01:01:33.925Z,98771.03
2023-10-13T01:04:03.505Z,98775.81
2023-10-13T01:06:30.868Z,98775.50
2023-10-13T01:09:17.835Z,98770.78
2023-10-13T01:11:54.200Z,98772.53
2023-10-13T01:14:24.421Z,98769.44
2023-10-13T01:16:54.283Z,98764.41
2023-10-13T01:19:25.840Z,98769.56
2023-10-13T01:22:03.595Z,98768.06
2023-10-13T01:24:38.091Z,98762.94
2023-10-13T01:27:19.815Z,98759.38
2023-10-13T01:29:51.769Z,98749.69
2023-10-13T01:32:21.224Z,98748.19
2023-10-13T01:34:49.971Z,98749.91
2023-10-13T01:37:17.656Z,98745.44
2023-10-13T01:39:48.882Z,98748.53
2023-10-13T01:42:22.800Z,98742.69
2023-10-13T01:44:52.703Z,98736.75
2023-10-13T01:47:19.785Z,98744.53
2023-10-13T01:50:24.674Z,98738.25
2023-10-13T01:53:00.960Z,98741.47
2023-10-13T01:55:29.706Z,98739.75
2023-10-13T01:57:56.570Z,98737.69
2023-10-13T02:00:23.526Z,98736.53
2023-10-13T02:02:52.174Z,98731.16
2023-10-13T02:05:19.459Z,98724.75
2023-10-13T02:07:46.529Z,98717.69
2023-10-13T02:10:14.245Z,98719.28
2023-10-13T02:12:44.325Z,98713.03
2023-10-13T02:15:27.320Z,98711.53
2023-10-13T02:17:56.760Z,98714.63
2023-10-13T02:20:26.791Z,98713.50
2023-10-13T02:22:53.590Z,98711.06
2023-10-13T02:25:36.824Z,98715.53
2023-10-13T02:28:09.848Z,98708.22
2023-10-13T02:30:49.791Z,98708.22
2023-10-13T02:33:22.929Z,98709.38
2023-10-13T02:35:56.292Z,98705.03
2023-10-13T02:38:47.476Z,98708.91
2023-10-13T02:41:27.435Z,98706.03
2023-10-13T02:43:55.605Z,98697.06
2023-10-13T02:46:24.043Z,98699.88
2023-10-13T02:49:02.999Z,98697.50
2023-10-13T02:51:36.589Z,98698.19
2023-10-13T02:54:13.220Z,98690.44
2023-10-13T02:56:58.788Z,98688.38
2023-10-13T02:59:41.447Z,98682.53
2023-10-13T03:02:29.335Z,98687.69
2023-10-13T03:05:10.923Z,98680.69
2023-10-13T03:07:38.614Z,98677.03
2023-10-13T03:10:12.646Z,98676.91
2023-10-13T03:12:41.306Z,98679.06
2023-10-13T03:15:12.467Z,98676.84
2023-10-13T03:17:44.728Z,98673.84
2023-10-13T03:20:17.201Z,98668.28
2023-10-13T03:22:47.767Z,98666.00
2023-10-13T03:25:25.907Z,98674.88
2023-10-13T03:27:53.322Z,98668.28
2023-10-13T03:30:22.132Z,98667.66
2023-10-13T03:32:54.811Z,98672.22
2023-10-13T03:35:25.610Z,98676.28
2023-10-13T03:37:53.416Z,98669.22
2023-10-13T03:40:21.116Z,98668.56
2023-10-13T03:43:12.834Z,98666.63
2023-10-13T03:45:45.149Z,98664.69
2023-10-13T03:48:25.867Z,98664.94
2023-10-13T03:51:05.006Z,98661.63
2023-10-13T03:53:36.979Z,98664.69
2023-10-13T03:56:10.876Z,98660.03
2023-10-13T03:58:47.134Z,98662.16
2023-10-13T04:01:18.519Z,98653.50
2023-10-13T04:04:05.097Z,98664.91
2023-10-13T04:06:55.910Z,98662.75
2023-10-13T04:09:30.264Z,98660.34
2023-10-13T04:12:05.323Z,98656.03
2023-10-13T04:14:56.329Z,98656.47
2023-10-13T04:17:29.743Z,98651.84
2023-10-13T04:20:08.080Z,98649.41
2023-10-13T04:22:47.171Z,98652.97
2023-10-13T04:25:43.480Z,98646.31
2023-10-13T04:28:17.818Z,98647.66
2023-10-13T04:30:57.634Z,98638.19
2023-10-13T04:33:37.280Z,98642.72
2023-10-13T04:36:38.729Z,98632.94
2023-10-13T04:39:05.728Z,98633.13
2023-10-13T04:41:46.568Z,98621.53
2023-10-13T04:44:35.456Z,98621.22
2023-10-13T04:47:03.383Z,98623.81
2023-10-13T04:49:35.912Z,98626.78
2023-10-13T04:52:11.708Z,98621.78
2023-10-13T04:54:50.956Z,98614.63
2023-10-13T04:57:24.917Z,98618.81
2023-10-13T05:00:04.832Z,98618.94
2023-10-13T05:02:41.782Z,98610.53
2023-10-13T05:05:26.891Z,98608.47
2023-10-13T05:08:12.603Z,98607.66
2023-10-13T05:10:58.008Z,98604.00
2023-10-13T05:13:43.532Z,98603.69
2023-10-13T05:16:29.035Z,98598.06
2023-10-13T05:19:14.485Z,98593.97
2023-10-13T05:21:59.997Z,98588.81
2023-10-13T05:24:45.390Z,98585.44
2023-10-13T05:27:32.004Z,98577.69
2023-10-13T05:30:17.340Z,98585.69
2023-10-13T05:33:02.666Z,98577.13
2023-10-13T05:35:51.661Z,98591.00
2023-10-13T05:38:37.093Z,98596.47
2023-10-13T05:41:26.348Z,98591.00
2023-10-13T05:44:11.687Z,98593.28
2023-10-13T05:46:39.309Z,98598.75
2023-10-13T05:49:18.215Z,98603.53
2023-10-13T05:51:59.310Z,98604.81
2023-10-13T05:54:44.915Z,98597.78
2023-10-13T05:57:30.472Z,98597.13
2023-10-13T06:00:15.926Z,98599.03
2023-10-13T06:03:01.472Z,98597.91
2023-10-13T06:05:46.682Z,98596.78
2023-10-13T06:08:32.276Z,98601.78
2023-10-13T06:11:22.303Z,98601.66
2023-10-13T06:14:08.396Z,98608.59
2023-10-13T06:16:54.288Z,98604.84
2023-10-13T06:19:39.766Z,98602.22
2023-10-13T06:22:25.194Z,98602.94
2023-10-13T06:25:10.732Z,98603.09
2023-10-13T06:27:55.970Z,98599.53
2023-10-13T06:30:22.832Z,98599.53
2023-10-13T06:32:52.076Z,98597.47
2023-10-13T06:35:24.834Z,98597.81
2023-10-13T06:37:52.763Z,98601.56
2023-10-13T06:40:27.409Z,98602.47
2023-10-13T06:42:56.921Z,98597.47
2023-10-13T06:45:28.402Z,98597.38
2023-10-13T06:47:56.985Z,98594.50
2023-10-13T06:50:26.039Z,98594.97
2023-10-13T06:52:55.883Z,98594.28
2023-10-13T06:55:28.974Z,98596.81
2023-10-13T06:58:01.442Z,98600.81
2023-10-13T07:00:31.138Z,98591.56
2023-10-13T07:03:06.948Z,98590.13
2023-10-13T07:05:42.652Z,98601.41
2023-10-13T07:08:14.868Z,98596.69
2023-10-13T07:11:14.889Z,98598.16
2023-10-13T07:13:48.610Z,98594.75
2023-10-13T07:16:29.347Z,98604.78
2023-10-13T07:18:57.458Z,98603.53
2023-10-13T07:21:33.060Z,98605.00
2023-10-13T07:24:10.039Z,98596.69
2023-10-13T07:26:44.493Z,98596.53
2023-10-13T07:29:13.321Z,98592.56
2023-10-13T07:31:46.986Z,98585.47
2023-10-13T07:34:21.807Z,98574.84
2023-10-13T07:36:50.847Z,98581.06
2023-10-13T07:39:25.135Z,98572.50
2023-10-13T07:42:05.288Z,98576.88
2023-10-13T07:44:34.475Z,98583.84
2023-10-13T07:47:04.873Z,98577.31
2023-10-13T07:49:37.630Z,98584.47
2023-10-13T07:52:36.092Z,98573.63
2023-10-13T07:55:13.427Z,98569.16
2023-10-13T07:57:56.651Z,98562.63
2023-10-13T08:00:39.838Z,98562.59
2023-10-13T08:03:20.775Z,98551.06
2023-10-13T08:06:07.714Z,98547.19
2023-10-13T08:08:41.682Z,98545.28
2023-10-13T08:11:32.061Z,98549.19
2023-10-13T08:14:22.573Z,98546.94
2023-10-13T08:17:02.534Z,98550.25
2023-10-13T08:19:50.551Z,98542.28
2023-10-13T08:22:21.301Z,98537.53
2023-10-13T08:24:50.222Z,98539.41
2023-10-13T08:27:50.669Z,98540.47
2023-10-13T08:30:27.681Z,98536.34
2023-10-13T08:33:05.772Z,98532.13
2023-10-13T08:35:36.847Z,98533.94
2023-10-13T08:38:30.368Z,98537.53
2023-10-13T08:41:19.411Z,98532.16
2023-10-13T08:43:52.449Z,98538.22
2023-10-13T08:46:32.326Z,98539.91
2023-10-13T08:49:15.458Z,98537.53
2023-10-13T08:52:06.301Z,98538.84
2023-10-13T08:54:46.952Z,98529.47
2023-10-13T08:57:32.450Z,98532.31
2023-10-13T09:00:19.437Z,98526.81
2023-10-13T09:03:06.752Z,98523.72
2023-10-13T09:06:02.727Z,98527.34
2023-10-13T09:08:36.679Z,98520.22
2023-10-13T09:11:14.930Z,98513.88
2023-10-13T09:13:47.803Z,98521.81
2023-10-13T09:16:45.091Z,98513.53
2023-10-13T09:19:13.070Z,98507.16
2023-10-13T09:21:41.455Z,98504.75
2023-10-13T09:24:23.057Z,98505.09
2023-10-13T09:26:54.472Z,98507.81
2023-10-13T09:29:22.695Z,98509.31
2023-10-13T09:32:03.439Z,98495.72
2023-10-13T09:34:35.546Z,98494.78
2023-10-13T09:37:06.146Z,98497.22
2023-10-13T09:39:45.715Z,98495.78
2023-10-13T09:42:17.981Z,98495.00
2023-10-13T09:44:52.696Z,98496.03
2023-10-13T09:47:38.880Z,98488.69
2023-10-13T09:50:15.968Z,98482.47
2023-10-13T09:52:47.420Z,98482.09
2023-10-13T09:55:40.304Z,98476.78
2023-10-13T09:58:12.696Z,98478.31
2023-10-13T10:01:11.586Z,98470.44
2023-10-13T10:03:53.437Z,98480.63
2023-10-13T10:06:40.161Z,98475.34
2023-10-13T10:09:16.002Z,98477.78
2023-10-13T10:12:09.237Z,98474.91
2023-10-13T10:15:21.587Z,98466.44
2023-10-13T10:17:51.105Z,98465.09
2023-10-13T10:20:45.889Z,98470.28
2023-10-13T10:23:45.304Z,98460.81
2023-10-13T10:26:24.397Z,98465.91
2023-10-13T10:28:51.566Z,98460.25
2023-10-13T10:31:20.796Z,98457.13
2023-10-13T10:33:51.723Z,98450.69
2023-10-13T10:36:30.963Z,98446.22
2023-10-13T10:39:02.416Z,98451.84
2023-10-13T10:41:40.026Z,98451.53
2023-10-13T10:44:17.753Z,98439.75
2023-10-13T10:46:58.691Z,98438.56
2023-10-13T10:49:29.327Z,98434.78
2023-10-13T10:52:05.610Z,98439.31
2023-10-13T10:54:35.649Z,98436.13
2023-10-13T10:57:12.065Z,98423.63
2023-10-13T10:59:40.200Z,98425.00
2023-10-13T11:02:09.909Z,98423.03
2023-10-13T11:04:57.618Z,98422.66
2023-10-13T11:07:25.357Z,98423.75
2023-10-13T11:10:07.552Z,98411.13
2023-10-13T11:12:35.514Z,98410.22
2023-10-13T11:15:34.835Z,98408.97
2023-10-13T11:18:06.963Z,98403.94
2023-10-13T11:20:44.853Z,98402.94
2023-10-13T11:23:13.741Z,98400.50
2023-10-13T11:25:40.912Z,98393.88
2023-10-13T11:28:28.929Z,98393.53
2023-10-13T11:31:00.731Z,98389.16
2023-10-13T11:33:29.828Z,98394.25
2023-10-13T11:35:58.419Z,98393.69
2023-10-13T11:38:41.838Z,98388.25
2023-10-13T11:41:09.825Z,98401.22
2023-10-13T11:43:43.678Z,98394.91
2023-10-13T11:46:11.847Z,98387.25
2023-10-13T11:48:42.626Z,98384.34
2023-10-13T11:51:18.648Z,98380.28
2023-10-13T11:53:46.613Z,98371.84
2023-10-13T11:56:13.526Z,98365.56
2023-10-13T11:58:42.300Z,98357.00
2023-10-13T12:01:14.812Z,98371.69
2023-10-13T12:04:03.821Z,98365.34
2023-10-13T12:06:36.058Z,98357.41
2023-10-13T12:09:19.917Z,98349.38
2023-10-13T12:11:52.105Z,98344.50
2023-10-13T12:14:23.295Z,98342.38
2023-10-13T12:16:54.708Z,98334.41
2023-10-13T12:19:28.598Z,98341.63
2023-10-13T12:21:56.489Z,98334.38
2023-10-13T12:24:36.761Z,98329.91
2023-10-13T12:27:20.214Z,98317.25
2023-10-13T12:29:53.106Z,98328.09
2023-10-13T12:32:26.674Z,98315.63
2023-10-13T12:35:02.853Z,98318.06
2023-10-13T12:37:51.015Z,98311.25
2023-10-13T12:40:39.529Z,98317.41
2023-10-13T12:43:25.338Z,98302.13
2023-10-13T12:46:12.115Z,98299.00
2023-10-13T12:48:59.357Z,98298.13
2023-10-13T12:51:32.185Z,98293.53
2023-10-13T12:54:16.974Z,98286.56
2023-10-13T12:56:44.451Z,98283.38
2023-10-13T12:59:14.648Z,98279.53
2023-10-13T13:01:45.373Z,98272.91
2023-10-13T13:04:22.122Z,98266.91
2023-10-13T13:06:54.926Z,98269.03
2023-10-13T13:09:27.784Z,98269.97
2023-10-13T13:11:59.533Z,98271.72
2023-10-13T13:14:30.773Z,98267.56
2023-10-13T13:17:07.299Z,98261.72
2023-10-13T13:19:42.547Z,98258.81
2023-10-13T13:22:13.324Z,98255.72
2023-10-13T13:24:45.891Z,98254.63
2023-10-13T13:27:23.418Z,98258.16
2023-10-13T13:29:50.476Z,98248.91
2023-10-13T13:32:24.921Z,98249.94
2023-10-13T13:35:08.990Z,98238.66
2023-10-13T13:37:38.517Z,98242.41
2023-10-13T13:40:16.225Z,98235.88
2023-10-13T13:42:44.691Z,98227.78
2023-10-13T13:45:23.166Z,98227.97
2023-10-13T13:47:54.701Z,98207.09
2023-10-13T13:50:31.145Z,98212.25
2023-10-13T13:52:59.407Z,98212.09
2023-10-13T13:55:32.346Z,98201.66
2023-10-13T13:57:59.710Z,98193.66
2023-10-13T14:00:38.754Z,98196.00
2023-10-13T14:03:14.153Z,98197.88
2023-10-13T14:05:44.762Z,98195.16
2023-10-13T14:08:16.397Z,98196.75
2023-10-13T14:11:02.371Z,98185.56
2023-10-13T14:13:47.768Z,98188.00
2023-10-13T14:16:21.559Z,98183.38
2023-10-13T14:18:51.737Z,98178.66
2023-10-13T14:21:20.027Z,98173.28
2023-10-13T14:23:54.651Z,98168.38
2023-10-13T14:26:26.304Z,98184.44
2023-10-13T14:29:02.343Z,98174.50
2023-10-13T14:31:31.039Z,98172.94
2023-10-13T14:33:58.359Z,98166.59
2023-10-13T14:36:30.330Z,98161.56
2023-10-13T14:38:57.685Z,98163.78
2023-10-13T14:41:24.844Z,98162.97
2023-10-13T14:43:52.077Z,98164.31
2023-10-13T14:46:26.885Z,98153.56
2023-10-13T14:48:54.892Z,98157.84
2023-10-13T14:51:22.069Z,98155.06
2023-10-13T14:53:52.587Z,98141.88
2023-10-13T14:56:21.185Z,98158.78
2023-10-13T14:58:48.165Z,98151.63
2023-10-13T15:01:16.353Z,98147.28
2023-10-13T15:03:48.683Z,98135.78
2023-10-13T15:06:27.475Z,98123.94
2023-10-13T15:08:57.789Z,98132.94
2023-10-13T15:11:41.930Z,98131.53
2023-10-13T15:14:14.519Z,98127.28
2023-10-13T15:16:44.212Z,98127.69
2023-10-13T15:19:11.579Z,98120.22
2023-10-13T15:21:41.116Z,98115.16
2023-10-13T15:24:24.738Z,98122.44
2023-10-13T15:26:58.321Z,98113.88
2023-10-13T15:29:31.380Z,98109.50
2023-10-13T15:32:01.277Z,98120.28
2023-10-13T15:34:29.747Z,98111.59
2023-10-13T15:36:58.964Z,98113.66
2023-10-13T15:39:29.580Z,98100.59
2023-10-13T15:42:00.659Z,98111.88
2023-10-13T15:44:31.328Z,98109.56
2023-10-13T15:49:35.184Z,98100.19
2023-10-13T15:52:02.664Z,98093.47
2023-10-13T15:54:29.613Z,98098.78
2023-10-13T15:56:56.676Z,98091.69
2023-10-13T15:59:26.795Z,98080.72
2023-10-13T16:01:58.897Z,98088.03
2023-10-13T16:04:26.687Z,98084.19
2023-10-13T16:06:53.860Z,98079.25
2023-10-13T16:09:25.227Z,98078.38
2023-10-13T16:11:54.134Z,98085.06
2023-10-13T16:14:22.333Z,98078.06
2023-10-13T16:16:53.887Z,98075.88
2023-10-13T16:19:23.022Z,98076.81
2023-10-13T16:21:55.709Z,98075.69
2023-10-13T16:24:23.449Z,98067.38
2023-10-13T16:26:56.728Z,98071.63
2023-10-13T16:29:23.889Z,98065.28
2023-10-13T16:31:50.933Z,98065.28
2023-10-13T16:34:19.394Z,98062.25
2023-10-13T16:36:49.142Z,98069.53
2023-10-13T16:39:17.107Z,98064.69
2023-10-13T16:41:48.275Z,98064.00
2023-10-13T16:44:16.785Z,98064.06
2023-10-13T16:46:44.016Z,98067.38
2023-10-13T16:49:12.469Z,98072.59
2023-10-13T16:51:39.681Z,98065.53
2023-10-13T16:54:09.490Z,98067.22
2023-10-13T16:56:39.853Z,98068.53
2023-10-13T16:59:08.048Z,98063.84
2023-10-13T17:01:35.472Z,98066.63
2023-10-13T17:04:05.731Z,98065.81
2023-10-13T17:06:34.032Z,98064.28
2023-10-13T17:09:00.944Z,98067.91
2023-10-13T17:11:27.909Z,98066.00
2023-10-13T17:13:54.735Z,98062.84
2023-10-13T17:16:24.007Z,98063.69
2023-10-13T17:18:53.040Z,98052.63
2023-10-13T17:21:27.109Z,98052.59
2023-10-13T17:23:54.878Z,98050.19
2023-10-13T17:26:27.575Z,98052.63
2023-10-13T17:29:03.788Z,98046.28
2023-10-13T17:31:34.134Z,98046.28
2023-10-13T17:34:01.787Z,98046.28
2023-10-13T17:36:30.356Z,98047.06
2023-10-13T17:38:57.827Z,98044.34
2023-10-13T17:41:25.663Z,98045.53
2023-10-13T17:43:52.640Z,98051.06
2023-10-13T17:46:22.181Z,98049.53
2023-10-13T17:48:49.798Z,98049.22
2023-10-13T17:51:16.862Z,98055.56
2023-10-13T17:53:43.846Z,98052.81
2023-10-13T17:56:17.147Z,98057.19
2023-10-13T17:58:45.663Z,98043.41
2023-10-13T18:01:19.361Z,98039.84
2023-10-13T18:03:53.049Z,98046.56
2023-10-13T18:06:23.641Z,98044.16
2023-10-13T18:08:55.167Z,98038.25
2023-10-13T18:11:25.128Z,98035.13
2023-10-13T18:13:53.738Z,98027.63
2023-10-13T18:16:25.905Z,98028.03
2023-10-13T18:18:56.794Z,98030.00
2023-10-13T18:21:24.702Z,98029.56
2023-10-13T18:23:54.184Z,98019.31
2023-10-13T18:26:21.219Z,98013.41
2023-10-13T18:28:51.897Z,98016.94
2023-10-13T18:31:19.237Z,98001.56
2023-10-13T18:33:46.504Z,97999.97
2023-10-13T18:36:25.706Z,98008.25
2023-10-13T18:38:52.942Z,98001.16
2023-10-13T18:41:20.806Z,98001.16
2023-10-13T18:43:48.641Z,97997.97
2023-10-13T18:46:17.488Z,98002.72
2023-10-13T18:48:46.526Z,97995.97
2023-10-13T18:51:19.304Z,97990.06
2023-10-13T18:53:49.478Z,98001.47
2023-10-13T18:56:22.064Z,97998.31
2023-10-13T18:58:55.897Z,98004.63
2023-10-13T19:01:30.803Z,98010.91
2023-10-13T19:04:09.734Z,97999.41
2023-10-13T19:06:36.747Z,98002.50
2023-10-13T19:09:07.029Z,97995.78
2023-10-13T19:11:37.631Z,98003.28
2023-10-13T19:14:10.920Z,97999.72
2023-10-13T19:16:42.244Z,97995.78
2023-10-13T19:19:09.389Z,97988.69
2023-10-13T19:21:37.865Z,97983.13
2023-10-13T19:24:06.969Z,97982.31
2023-10-13T19:26:36.785Z,97984.63
2023-10-13T19:29:07.180Z,97982.22
2023-10-13T19:31:37.574Z,97980.66
2023-10-13T19:34:05.976Z,97981.00
2023-10-13T19:36:34.320Z,97976.72
2023-10-13T19:39:07.594Z,97975.13
2023-10-13T19:41:36.953Z,97971.94
2023-10-13T19:44:05.603Z,97969.19
2023-10-13T19:46:37.321Z,97968.78
2023-10-13T19:49:06.014Z,97971.94
2023-10-13T19:51:35.101Z,97962.91
2023-10-13T19:54:04.158Z,97958.13
2023-10-13T19:56:33.344Z,97953.44
2023-10-13T19:59:03.675Z,97956.97
2023-10-13T20:01:34.552Z,97952.63
2023-10-13T20:04:08.756Z,97958.13
2023-10-13T20:09:26.179Z,97954.97
2023-10-13T20:11:53.916Z,97958.50
2023-10-13T20:14:22.101Z,97964.00
2023-10-13T20:16:52.283Z,97962.88
2023-10-13T20:19:19.518Z,97959.31
2023-10-13T20:21:48.045Z,97954.97
2023-10-13T20:24:16.473Z,97954.97
2023-10-13T20:26:43.632Z,97950.66
2023-10-13T20:29:19.431Z,97953.81
2023-10-13T20:31:50.865Z,97949.88
2023-10-13T20:34:24.284Z,97956.16
2023-10-13T20:36:55.791Z,97961.66
2023-10-13T20:39:25.923Z,97956.91
2023-10-13T20:41:54.301Z,97960.84
2023-10-13T20:44:28.606Z,97955.69
2023-10-13T20:46:58.693Z,97954.81
2023-10-13T20:49:27.610Z,97950.16
2023-10-13T20:51:54.959Z,97947.44
2023-10-13T20:54:22.507Z,97948.66
2023-10-13T20:56:49.315Z,97944.31
2023-10-13T20:59:16.563Z,97947.44
2023-10-13T21:01:44.075Z,97948.56
2023-10-13T21:04:11.330Z,97943.47
2023-10-13T21:06:41.659Z,97936.41
2023-10-13T21:09:13.825Z,97932.91
2023-10-13T21:11:41.891Z,97930.97
2023-10-13T21:14:09.845Z,97936.13
2023-10-13T21:16:36.806Z,97936.22
2023-10-13T21:19:06.177Z,97930.41
2023-10-13T21:21:35.060Z,97936.88
2023-10-13T21:24:05.605Z,97936.13
2023-10-13T21:26:32.383Z,97942.47
2023-10-13T21:28:59.311Z,97944.44
2023-10-13T21:31:26.503Z,97940.06
2023-10-13T21:33:55.664Z,97940.44
2023-10-13T21:36:27.329Z,97943.19
2023-10-13T21:38:58.955Z,97944.72
2023-10-13T21:41:26.383Z,97964.03
2023-10-13T21:43:55.455Z,97962.84
2023-10-13T21:46:25.280Z,97962.06
2023-10-13T21:48:53.458Z,97960.97
2023-10-13T21:51:25.937Z,97961.38
2023-10-13T21:53:53.871Z,97959.81
2023-10-13T21:56:25.311Z,97965.72
2023-10-13T21:58:52.753Z,97960.63
2023-10-13T22:01:29.090Z,97965.34
2023-10-13T22:04:11.544Z,97960.50
2023-10-13T22:06:42.081Z,97970.34
2023-10-13T22:09:10.653Z,97969.91
2023-10-13T22:11:41.213Z,97975.41
2023-10-13T22:14:13.565Z,97978.50
2023-10-13T22:16:40.476Z,97977.69
2023-10-13T22:19:07.564Z,97987.94
2023-10-13T22:21:34.758Z,97980.41
2023-10-13T22:24:02.158Z,97980.00
2023-10-13T22:26:32.929Z,97983.53
2023-10-13T22:29:00.176Z,97983.09
2023-10-13T22:31:27.926Z,97985.44
2023-10-13T22:33:56.243Z,97994.50
2023-10-13T22:36:23.858Z,97998.00
2023-10-13T22:38:59.939Z,97991.22
2023-10-13T22:41:34.897Z,97997.91
2023-10-13T22:44:07.078Z,98002.19
2023-10-13T22:46:34.173Z,97989.94
2023-10-13T22:49:01.089Z,97997.03
2023-10-13T22:51:28.419Z,98003.78
2023-10-13T22:53:55.361Z,97978.06
2023-10-13T22:56:22.427Z,97985.16
2023-10-13T22:58:49.687Z,97989.88
2023-10-13T23:01:19.370Z,98000.19
2023-10-13T23:03:57.496Z,98002.63
2023-10-13T23:06:35.246Z,98018.06
2023-10-13T23:09:23.544Z,98030.34
2023-10-13T23:11:50.635Z,98033.16
2023-10-13T23:14:19.523Z,98032.81
2023-10-13T23:16:51.200Z,98021.00
2023-10-13T23:19:20.362Z,98032.88
2023-10-13T23:21:48.927Z,98019.84
2023-10-13T23:24:16.162Z,98026.59
2023-10-13T23:26:43.219Z,98023.06
2023-10-13T23:29:10.985Z,98027.41
2023-10-13T23:31:39.022Z,98024.28
2023-10-13T23:34:07.111Z,98034.94
2023-10-13T23:36:35.445Z,98040.13
2023-10-13T23:39:11.094Z,98020.81
2023-10-13T23:41:42.682Z,98008.66
2023-10-13T23:44:18.388Z,98012.63
2023-10-13T23:46:45.323Z,98002.38
2023-10-13T23:49:20.135Z,97984.66
2023-10-13T23:51:54.470Z,97981.13
2023-10-13T23:54:22.031Z,97983.47
2023-10-13T23:56:49.322Z,97976.38
2023-10-13T23:59:28.332Z,97990.53
